sensor_id;sensor_type;location;lat;lon;timestamp;pressure;altitude;pressure_sealevel;temperature
75273;BMP280;63869;52.344;16.928;2023-02-17T04:00:29;100895.25;;;9.11
75273;BMP280;63869;52.344;16.928;2023-02-17T04:02:54;100885.72;;;9.10
75273;BMP280;63869;52.344;16.928;2023-02-17T04:05:21;100884.59;;;9.04
75273;BMP280;63869;52.344;16.928;2023-02-17T04:07:47;100834.38;;;8.74
75273;BMP280;63869;52.344;16.928;2023-02-17T04:10:12;100883.06;;;9.03
75273;BMP280;63869;52.344;16.928;2023-02-17T04:12:38;100851.13;;;8.78
75273;BMP280;63869;52.344;16.928;2023-02-17T04:15:03;100870.88;;;8.95
75273;BMP280;63869;52.344;16.928;2023-02-17T04:17:29;100849.63;;;8.81
75273;BMP280;63869;52.344;16.928;2023-02-17T04:19:54;100869.78;;;8.89
75273;BMP280;63869;52.344;16.928;2023-02-17T04:22:19;100864.47;;;8.82
75273;BMP280;63869;52.344;16.928;2023-02-17T04:24:45;100856.09;;;8.76
75273;BMP280;63869;52.344;16.928;2023-02-17T04:27:10;100865.22;;;8.79
75273;BMP280;63869;52.344;16.928;2023-02-17T04:29:35;100856.50;;;8.71
75273;BMP280;63869;52.344;16.928;2023-02-17T04:32:01;100871.72;;;8.74
75273;BMP280;63869;52.344;16.928;2023-02-17T04:34:26;100875.16;;;8.71
75273;BMP280;63869;52.344;16.928;2023-02-17T04:36:51;100865.28;;;8.61
75273;BMP280;63869;52.344;16.928;2023-02-17T04:39:17;100860.72;;;8.61
75273;BMP280;63869;52.344;16.928;2023-02-17T04:41:42;100877.84;;;8.68
75273;BMP280;63869;52.344;16.928;2023-02-17T04:44:08;100863.38;;;8.61
75273;BMP280;63869;52.344;16.928;2023-02-17T04:46:33;100863.38;;;8.61
75273;BMP280;63869;52.344;16.928;2023-02-17T04:48:58;100853.81;;;8.64
75273;BMP280;63869;52.344;16.928;2023-02-17T04:51:24;100839.78;;;8.56
75273;BMP280;63869;52.344;16.928;2023-02-17T04:53:49;100832.16;;;8.55
75273;BMP280;63869;52.344;16.928;2023-02-17T04:56:14;100836.72;;;8.58
75273;BMP280;63869;52.344;16.928;2023-02-17T04:58:39;100840.91;;;8.55
75273;BMP280;63869;52.344;16.928;2023-02-17T05:01:05;100828.72;;;8.47
75273;BMP280;63869;52.344;16.928;2023-02-17T05:03:30;100835.59;;;8.55
75273;BMP280;63869;52.344;16.928;2023-02-17T05:05:55;100831.03;;;8.49
75273;BMP280;63869;52.344;16.928;2023-02-17T05:08:21;100814.28;;;8.45
75273;BMP280;63869;52.344;16.928;2023-02-17T05:10:46;100816.97;;;8.52
75273;BMP280;63869;52.344;16.928;2023-02-17T05:13:11;100816.94;;;8.48
75273;BMP280;63869;52.344;16.928;2023-02-17T05:15:37;100780.06;;;8.29
75273;BMP280;63869;52.344;16.928;2023-02-17T05:18:02;100813.53;;;8.51
75273;BMP280;63869;52.344;16.928;2023-02-17T05:20:28;100816.97;;;8.52
75273;BMP280;63869;52.344;16.928;2023-02-17T05:22:53;100804.75;;;8.44
75273;BMP280;63869;52.344;16.928;2023-02-17T05:25:18;100822.66;;;8.50
75273;BMP280;63869;52.344;16.928;2023-02-17T05:27:44;100824.19;;;8.51
75273;BMP280;63869;52.344;16.928;2023-02-17T05:30:09;100784.25;;;8.26
75273;BMP280;63869;52.344;16.928;2023-02-17T05:32:35;100788.06;;;8.33
75273;BMP280;63869;52.344;16.928;2023-02-17T05:35:00;100802.09;;;8.44
75273;BMP280;63869;52.344;16.928;2023-02-17T05:37:25;100800.94;;;8.48
75273;BMP280;63869;52.344;16.928;2023-02-17T05:39:51;100797.91;;;8.46
75273;BMP280;63869;52.344;16.928;2023-02-17T05:42:16;100799.44;;;8.47
75273;BMP280;63869;52.344;16.928;2023-02-17T05:44:42;100802.84;;;8.48
75273;BMP280;63869;52.344;16.928;2023-02-17T05:47:07;100804.75;;;8.47
75273;BMP280;63869;52.344;16.928;2023-02-17T05:49:32;100796.75;;;8.47
75273;BMP280;63869;52.344;16.928;2023-02-17T05:51:58;100794.47;;;8.46
75273;BMP280;63869;52.344;16.928;2023-02-17T05:54:23;100786.88;;;8.44
75273;BMP280;63869;52.344;16.928;2023-02-17T05:56:48;100778.91;;;8.41
75273;BMP280;63869;52.344;16.928;2023-02-17T05:59:14;100789.53;;;8.44
75273;BMP280;63869;52.344;16.928;2023-02-17T06:01:39;100792.97;;;8.48
75273;BMP280;63869;52.344;16.928;2023-02-17T06:04:04;100783.44;;;8.44
75273;BMP280;63869;52.344;16.928;2023-02-17T06:06:29;100781.97;;;8.18
75273;BMP280;63869;52.344;16.928;2023-02-17T06:08:55;100785.78;;;8.03
75273;BMP280;63869;52.344;16.928;2023-02-17T06:11:20;100782.38;;;7.84
75273;BMP280;63869;52.344;16.928;2023-02-17T06:13:45;100777.06;;;7.74
75273;BMP280;63869;52.344;16.928;2023-02-17T06:16:11;100754.59;;;7.53
75273;BMP280;63869;52.344;16.928;2023-02-17T06:18:36;100781.59;;;7.66
75273;BMP280;63869;52.344;16.928;2023-02-17T06:21:01;100778.53;;;7.60
75273;BMP280;63869;52.344;16.928;2023-02-17T06:23:27;100777.38;;;7.51
75273;BMP280;63869;52.344;16.928;2023-02-17T06:25:52;100769.03;;;7.42
75273;BMP280;63869;52.344;16.928;2023-02-17T06:28:18;100777.72;;;7.39
75273;BMP280;63869;52.344;16.928;2023-02-17T06:30:45;100773.94;;;7.33
75273;BMP280;63869;52.344;16.928;2023-02-17T06:33:10;100775.47;;;7.30
75273;BMP280;63869;52.344;16.928;2023-02-17T06:35:36;100778.88;;;7.27
75273;BMP280;63869;52.344;16.928;2023-02-17T06:38:01;100767.44;;;7.19
75273;BMP280;63869;52.344;16.928;2023-02-17T06:40:26;100776.16;;;7.23
75273;BMP280;63869;52.344;16.928;2023-02-17T06:42:51;100762.84;;;7.09
75273;BMP280;63869;52.344;16.928;2023-02-17T06:45:17;100760.97;;;7.13
75273;BMP280;63869;52.344;16.928;2023-02-17T06:47:42;100779.97;;;7.22
75273;BMP280;63869;52.344;16.928;2023-02-17T06:50:11;100772.38;;;7.17
75273;BMP280;63869;52.344;16.928;2023-02-17T06:52:37;100758.34;;;7.20
75273;BMP280;63869;52.344;16.928;2023-02-17T06:55:03;100734.00;;;7.11
75273;BMP280;63869;52.344;16.928;2023-02-17T06:57:28;100742.38;;;7.20
75273;BMP280;63869;52.344;16.928;2023-02-17T06:59:54;100750.00;;;7.36
75273;BMP280;63869;52.344;16.928;2023-02-17T07:02:19;100727.59;;;7.26
75273;BMP280;63869;52.344;16.928;2023-02-17T07:04:46;100733.28;;;7.28
75273;BMP280;63869;52.344;16.928;2023-02-17T07:07:11;100758.78;;;7.44
75273;BMP280;63869;52.344;16.928;2023-02-17T07:09:37;100769.41;;;7.44
75273;BMP280;63869;52.344;16.928;2023-02-17T07:12:03;100748.88;;;7.41
75273;BMP280;63869;52.344;16.928;2023-02-17T07:14:28;100745.47;;;7.44
75273;BMP280;63869;52.344;16.928;2023-02-17T07:17:01;100751.16;;;7.46
75273;BMP280;63869;52.344;16.928;2023-02-17T07:19:27;100751.94;;;7.57
75273;BMP280;63869;52.344;16.928;2023-02-17T07:21:52;100756.13;;;7.54
75273;BMP280;63869;52.344;16.928;2023-02-17T07:24:18;100759.94;;;7.64
75273;BMP280;63869;52.344;16.928;2023-02-17T07:26:43;100740.16;;;7.58
75273;BMP280;63869;52.344;16.928;2023-02-17T07:29:08;100750.78;;;7.72
75273;BMP280;63869;52.344;16.928;2023-02-17T07:31:35;100707.84;;;7.49
75273;BMP280;63869;52.344;16.928;2023-02-17T07:34:01;100753.88;;;7.78
75273;BMP280;63869;52.344;16.928;2023-02-17T07:36:27;100753.84;;;7.81
75273;BMP280;63869;52.344;16.928;2023-02-17T07:38:53;100743.59;;;7.76
75273;BMP280;63869;52.344;16.928;2023-02-17T07:41:21;100741.31;;;7.78
75273;BMP280;63869;52.344;16.928;2023-02-17T07:43:47;100741.31;;;7.78
75273;BMP280;63869;52.344;16.928;2023-02-17T07:46:13;100738.66;;;7.78
75273;BMP280;63869;52.344;16.928;2023-02-17T07:48:39;100734.47;;;7.74
75273;BMP280;63869;52.344;16.928;2023-02-17T07:51:09;100734.81;;;7.69
75273;BMP280;63869;52.344;16.928;2023-02-17T07:53:35;100732.53;;;7.71
75273;BMP280;63869;52.344;16.928;2023-02-17T07:56:02;100732.56;;;7.74
75273;BMP280;63869;52.344;16.928;2023-02-17T07:58:30;100736.34;;;7.80
75273;BMP280;63869;52.344;16.928;2023-02-17T08:00:56;100735.22;;;7.81
75273;BMP280;63869;52.344;16.928;2023-02-17T08:03:21;100736.72;;;7.86
75273;BMP280;63869;52.344;16.928;2023-02-17T08:05:47;100721.94;;;7.88
75273;BMP280;63869;52.344;16.928;2023-02-17T08:08:15;100717.34;;;7.82
75273;BMP280;63869;52.344;16.928;2023-02-17T08:11:02;100716.56;;;7.81
75273;BMP280;63869;52.344;16.928;2023-02-17T08:13:46;100707.88;;;7.77
75273;BMP280;63869;52.344;16.928;2023-02-17T08:16:11;100726.47;;;7.95
75273;BMP280;63869;52.344;16.928;2023-02-17T08:18:36;100708.22;;;7.83
75273;BMP280;63869;52.344;16.928;2023-02-17T08:21:02;100710.88;;;7.83
75273;BMP280;63869;52.344;16.928;2023-02-17T08:23:29;100699.88;;;7.74
75273;BMP280;63869;52.344;16.928;2023-02-17T08:25:57;100725.72;;;7.91
75273;BMP280;63869;52.344;16.928;2023-02-17T08:28:23;100711.63;;;7.83
75273;BMP280;63869;52.344;16.928;2023-02-17T08:30:48;100708.97;;;7.87
75273;BMP280;63869;52.344;16.928;2023-02-17T08:33:14;100713.16;;;7.91
75273;BMP280;63869;52.344;16.928;2023-02-17T08:35:43;100710.50;;;7.88
75273;BMP280;63869;52.344;16.928;2023-02-17T08:38:09;100705.94;;;7.95
75273;BMP280;63869;52.344;16.928;2023-02-17T08:40:35;100694.16;;;7.89
75273;BMP280;63869;52.344;16.928;2023-02-17T08:43:00;100694.16;;;7.82
75273;BMP280;63869;52.344;16.928;2023-02-17T08:45:25;100697.94;;;7.95
75273;BMP280;63869;52.344;16.928;2023-02-17T08:47:51;100698.31;;;7.94
75273;BMP280;63869;52.344;16.928;2023-02-17T08:50:16;100677.78;;;7.80
75273;BMP280;63869;52.344;16.928;2023-02-17T08:52:44;100689.19;;;7.88
75273;BMP280;63869;52.344;16.928;2023-02-17T08:55:10;100690.72;;;7.92
75273;BMP280;63869;52.344;16.928;2023-02-17T08:57:35;100670.19;;;7.82
75273;BMP280;63869;52.344;16.928;2023-02-17T09:00:01;100686.91;;;7.97
75273;BMP280;63869;52.344;16.928;2023-02-17T09:02:26;100691.84;;;7.99
75273;BMP280;63869;52.344;16.928;2023-02-17T09:04:51;100681.59;;;7.93
75273;BMP280;63869;52.344;16.928;2023-02-17T09:07:17;100680.81;;;7.97
75273;BMP280;63869;52.344;16.928;2023-02-17T09:09:42;100672.09;;;8.00
75273;BMP280;63869;52.344;16.928;2023-02-17T09:12:07;100657.63;;;8.01
75273;BMP280;63869;52.344;16.928;2023-02-17T09:14:33;100660.69;;;7.95
75273;BMP280;63869;52.344;16.928;2023-02-17T09:16:58;100653.41;;;8.03
75273;BMP280;63869;52.344;16.928;2023-02-17T09:19:24;100667.88;;;8.09
75273;BMP280;63869;52.344;16.928;2023-02-17T09:21:50;100658.78;;;8.00
75273;BMP280;63869;52.344;16.928;2023-02-17T09:24:16;100662.53;;;8.13
75273;BMP280;63869;52.344;16.928;2023-02-17T09:26:42;100662.53;;;8.13
75273;BMP280;63869;52.344;16.928;2023-02-17T09:29:07;100659.50;;;8.11
75273;BMP280;63869;52.344;16.928;2023-02-17T09:31:34;100639.69;;;8.12
75273;BMP280;63869;52.344;16.928;2023-02-17T09:34:01;100651.47;;;8.25
75273;BMP280;63869;52.344;16.928;2023-02-17T09:36:30;100660.19;;;8.29
75273;BMP280;63869;52.344;16.928;2023-02-17T09:38:56;100639.25;;;8.31
75273;BMP280;63869;52.344;16.928;2023-02-17T09:41:32;100641.91;;;8.38
75273;BMP280;63869;52.344;16.928;2023-02-17T09:43:59;100633.16;;;8.41
75273;BMP280;63869;52.344;16.928;2023-02-17T09:46:34;100619.44;;;8.39
75273;BMP280;63869;52.344;16.928;2023-02-17T09:49:12;100638.38;;;8.55
75273;BMP280;63869;52.344;16.928;2023-02-17T09:51:48;100642.56;;;8.56
75273;BMP280;63869;52.344;16.928;2023-02-17T09:54:31;100603.78;;;8.45
75273;BMP280;63869;52.344;16.928;2023-02-17T09:57:00;100626.13;;;8.65
75273;BMP280;63869;52.344;16.928;2023-02-17T09:59:43;100620.41;;;8.67
75273;BMP280;63869;52.344;16.928;2023-02-17T10:02:23;100613.97;;;8.68
75273;BMP280;63869;52.344;16.928;2023-02-17T10:04:51;100596.84;;;8.69
75273;BMP280;63869;52.344;16.928;2023-02-17T10:07:28;100600.63;;;8.71
75273;BMP280;63869;52.344;16.928;2023-02-17T10:10:10;100597.50;;;8.80
75273;BMP280;63869;52.344;16.928;2023-02-17T10:12:47;100587.22;;;8.82
75273;BMP280;63869;52.344;16.928;2023-02-17T10:15:16;100590.63;;;8.86
75273;BMP280;63869;52.344;16.928;2023-02-17T10:20:51;100589.81;;;8.92
75273;BMP280;63869;52.344;16.928;2023-02-17T10:23:21;100595.88;;;8.93
75273;BMP280;63869;52.344;16.928;2023-02-17T10:26:08;100589.84;;;8.89
75273;BMP280;63869;52.344;16.928;2023-02-17T10:33:49;100578.72;;;8.94
75273;BMP280;63869;52.344;16.928;2023-02-17T10:39:30;100577.94;;;8.97
75273;BMP280;63869;52.344;16.928;2023-02-17T10:41:59;100558.91;;;8.99
75273;BMP280;63869;52.344;16.928;2023-02-17T10:44:24;100544.34;;;9.07
75273;BMP280;63869;52.344;16.928;2023-02-17T10:46:52;100538.66;;;9.05
75273;BMP280;63869;52.344;16.928;2023-02-17T10:49:25;100509.78;;;9.00
75273;BMP280;63869;52.344;16.928;2023-02-17T10:51:51;100520.31;;;9.10
75273;BMP280;63869;52.344;16.928;2023-02-17T10:54:45;100524.81;;;9.20
75273;BMP280;63869;52.344;16.928;2023-02-17T10:57:13;100526.63;;;9.30
75273;BMP280;63869;52.344;16.928;2023-02-17T10:59:42;100503.69;;;9.33
75273;BMP280;63869;52.344;16.928;2023-02-17T11:02:18;100496.72;;;9.43
75273;BMP280;63869;52.344;16.928;2023-02-17T11:04:47;100502.34;;;9.52
75273;BMP280;63869;52.344;16.928;2023-02-17T11:07:15;100488.13;;;9.58
75273;BMP280;63869;52.344;16.928;2023-02-17T11:09:50;100476.41;;;9.52
75273;BMP280;63869;52.344;16.928;2023-02-17T11:12:27;100476.69;;;9.61
75273;BMP280;63869;52.344;16.928;2023-02-17T11:14:54;100470.56;;;9.61
75273;BMP280;63869;52.344;16.928;2023-02-17T11:17:26;100468.28;;;9.63
75273;BMP280;63869;52.344;16.928;2023-02-17T11:19:58;100456.06;;;9.65
75273;BMP280;63869;52.344;16.928;2023-02-17T11:22:38;100449.22;;;9.61
75273;BMP280;63869;52.344;16.928;2023-02-17T11:25:35;100429.50;;;9.55
75273;BMP280;63869;52.344;16.928;2023-02-17T11:28:05;100428.34;;;9.56
75273;BMP280;63869;52.344;16.928;2023-02-17T11:30:32;100413.22;;;9.46
75273;BMP280;63869;52.344;16.928;2023-02-17T11:33:09;100420.09;;;9.47
75273;BMP280;63869;52.344;16.928;2023-02-17T11:38:11;100362.44;;;9.22
75273;BMP280;63869;52.344;16.928;2023-02-17T11:40:37;100329.22;;;8.96
75273;BMP280;63869;52.344;16.928;2023-02-17T11:43:03;100382.81;;;9.40
75273;BMP280;63869;52.344;16.928;2023-02-17T11:45:59;100377.13;;;9.38
75273;BMP280;63869;52.344;16.928;2023-02-17T11:54:06;100362.53;;;9.42
75273;BMP280;63869;52.344;16.928;2023-02-17T11:56:36;100361.47;;;9.40
75273;BMP280;63869;52.344;16.928;2023-02-17T11:59:23;100346.94;;;9.41
75273;BMP280;63869;52.344;16.928;2023-02-17T12:04:53;100352.28;;;9.41
75273;BMP280;63869;52.344;16.928;2023-02-17T12:07:38;100343.88;;;9.42
75273;BMP280;63869;52.344;16.928;2023-02-17T12:10:33;100341.19;;;9.46
75273;BMP280;63869;52.344;16.928;2023-02-17T12:16:14;100321.63;;;9.52
75273;BMP280;63869;52.344;16.928;2023-02-17T12:18:55;100313.94;;;9.58
75273;BMP280;63869;52.344;16.928;2023-02-17T12:24:26;100300.13;;;9.63
75273;BMP280;63869;52.344;16.928;2023-02-17T12:27:11;100299.66;;;9.68
75273;BMP280;63869;52.344;16.928;2023-02-17T12:29:51;100295.91;;;9.65
75273;BMP280;63869;52.344;16.928;2023-02-17T12:32:32;100295.03;;;9.72
75273;BMP280;63869;52.344;16.928;2023-02-17T12:35:27;100284.47;;;9.65
75273;BMP280;63869;52.344;16.928;2023-02-17T12:38:00;100268.47;;;9.65
75273;BMP280;63869;52.344;16.928;2023-02-17T12:40:39;100272.50;;;9.73
75273;BMP280;63869;52.344;16.928;2023-02-17T12:43:25;100276.34;;;9.72
75273;BMP280;63869;52.344;16.928;2023-02-17T12:45:54;100258.47;;;9.69
75273;BMP280;63869;52.344;16.928;2023-02-17T12:48:35;100244.31;;;9.72
75273;BMP280;63869;52.344;16.928;2023-02-17T12:51:09;100243.59;;;9.68
75273;BMP280;63869;52.344;16.928;2023-02-17T12:53:59;100250.03;;;9.71
75273;BMP280;63869;52.344;16.928;2023-02-17T12:56:38;100241.75;;;9.65
75273;BMP280;63869;52.344;16.928;2023-02-17T12:59:14;100234.84;;;9.68
75273;BMP280;63869;52.344;16.928;2023-02-17T13:01:47;100200.34;;;9.57
75273;BMP280;63869;52.344;16.928;2023-02-17T13:04:17;100212.47;;;9.61
75273;BMP280;63869;52.344;16.928;2023-02-17T13:06:47;100164.19;;;9.29
75273;BMP280;63869;52.344;16.928;2023-02-17T13:09:43;100191.38;;;9.67
75273;BMP280;63869;52.344;16.928;2023-02-17T13:14:49;100189.91;;;9.66
75273;BMP280;63869;52.344;16.928;2023-02-17T13:20:23;100172.38;;;9.65
75273;BMP280;63869;52.344;16.928;2023-02-17T13:22:45;100140.88;;;9.33
75273;BMP280;63869;52.344;16.928;2023-02-17T13:25:25;100166.03;;;9.55
75273;BMP280;63869;52.344;16.928;2023-02-17T13:28:00;100169.53;;;9.52
75273;BMP280;63869;52.344;16.928;2023-02-17T13:30:40;100134.34;;;9.38
75273;BMP280;63869;52.344;16.928;2023-02-17T13:33:24;100142.59;;;9.43
75273;BMP280;63869;52.344;16.928;2023-02-17T13:35:50;100122.28;;;9.29
75273;BMP280;63869;52.344;16.928;2023-02-17T13:38:30;100120.41;;;9.26
75273;BMP280;63869;52.344;16.928;2023-02-17T13:41:01;100107.97;;;9.20
75273;BMP280;63869;52.344;16.928;2023-02-17T13:43:29;100108.59;;;9.27
75273;BMP280;63869;52.344;16.928;2023-02-17T13:46:00;100106.25;;;9.29
75273;BMP280;63869;52.344;16.928;2023-02-17T13:48:29;100081.16;;;9.27
75273;BMP280;63869;52.344;16.928;2023-02-17T13:51:00;100094.50;;;9.27
75273;BMP280;63869;52.344;16.928;2023-02-17T13:53:27;100078.13;;;9.25
75273;BMP280;63869;52.344;16.928;2023-02-17T13:56:28;100075.47;;;9.25
75273;BMP280;63869;52.344;16.928;2023-02-17T13:58:46;100047.47;;;9.13
75273;BMP280;63869;52.344;16.928;2023-02-17T14:01:17;100074.38;;;9.22
75273;BMP280;63869;52.344;16.928;2023-02-17T14:03:48;100043.25;;;9.16
75273;BMP280;63869;52.344;16.928;2023-02-17T14:06:29;100062.28;;;9.18
75273;BMP280;63869;52.344;16.928;2023-02-17T14:08:56;100046.34;;;9.14
75273;BMP280;63869;52.344;16.928;2023-02-17T14:11:24;100029.63;;;9.10
75273;BMP280;63869;52.344;16.928;2023-02-17T14:13:53;100033.38;;;9.13
75273;BMP280;63869;52.344;16.928;2023-02-17T14:16:29;100037.19;;;9.15
75273;BMP280;63869;52.344;16.928;2023-02-17T14:19:08;100014.34;;;9.14
75273;BMP280;63869;52.344;16.928;2023-02-17T14:21:35;100030.44;;;9.07
75273;BMP280;63869;52.344;16.928;2023-02-17T14:24:01;100019.19;;;9.19
75273;BMP280;63869;52.344;16.928;2023-02-17T14:26:46;99997.47;;;9.21
75273;BMP280;63869;52.344;16.928;2023-02-17T14:29:13;99996.78;;;9.17
75273;BMP280;63869;52.344;16.928;2023-02-17T14:31:43;100009.69;;;9.18
75273;BMP280;63869;52.344;16.928;2023-02-17T14:34:29;100000.03;;;9.24
75273;BMP280;63869;52.344;16.928;2023-02-17T14:37:22;99952.44;;;9.03
75273;BMP280;63869;52.344;16.928;2023-02-17T14:39:47;99989.47;;;9.21
75273;BMP280;63869;52.344;16.928;2023-02-17T14:42:13;99987.06;;;9.26
75273;BMP280;63869;52.344;16.928;2023-02-17T14:44:38;99984.44;;;9.23
75273;BMP280;63869;52.344;16.928;2023-02-17T14:47:04;99979.88;;;9.23
75273;BMP280;63869;52.344;16.928;2023-02-17T14:49:29;99989.13;;;9.19
75273;BMP280;63869;52.344;16.928;2023-02-17T14:51:55;99980.38;;;9.18
75273;BMP280;63869;52.344;16.928;2023-02-17T14:54:21;99980.78;;;9.17
75273;BMP280;63869;52.344;16.928;2023-02-17T14:57:10;99976.19;;;9.17
75273;BMP280;63869;52.344;16.928;2023-02-17T14:59:36;99982.28;;;9.18
75273;BMP280;63869;52.344;16.928;2023-02-17T15:02:01;99954.28;;;9.06
75273;BMP280;63869;52.344;16.928;2023-02-17T15:04:27;99961.69;;;9.18
75273;BMP280;63869;52.344;16.928;2023-02-17T15:06:52;99959.78;;;9.19
75273;BMP280;63869;52.344;16.928;2023-02-17T15:09:30;99975.91;;;9.31
75273;BMP280;63869;52.344;16.928;2023-02-17T15:11:56;99981.94;;;9.36
75273;BMP280;63869;52.344;16.928;2023-02-17T15:14:21;99955.59;;;9.38
75273;BMP280;63869;52.344;16.928;2023-02-17T15:16:48;99959.50;;;9.33
75273;BMP280;63869;52.344;16.928;2023-02-17T15:19:15;99960.84;;;9.41
75273;BMP280;63869;52.344;16.928;2023-02-17T15:21:48;99953.28;;;9.40
75273;BMP280;63869;52.344;16.928;2023-02-17T15:24:19;99949.00;;;9.42
75273;BMP280;63869;52.344;16.928;2023-02-17T15:26:47;99927.81;;;9.35
75273;BMP280;63869;52.344;16.928;2023-02-17T15:29:15;99936.63;;;9.52
75273;BMP280;63869;52.344;16.928;2023-02-17T15:31:41;99937.47;;;9.49
75273;BMP280;63869;52.344;16.928;2023-02-17T15:34:13;99938.81;;;9.57
75273;BMP280;63869;52.344;16.928;2023-02-17T15:36:39;99951.41;;;9.56
75273;BMP280;63869;52.344;16.928;2023-02-17T15:39:04;99949.91;;;9.55
75273;BMP280;63869;52.344;16.928;2023-02-17T15:41:30;99933.34;;;9.64
75273;BMP280;63869;52.344;16.928;2023-02-17T15:43:56;99929.09;;;9.67
75273;BMP280;63869;52.344;16.928;2023-02-17T15:46:28;99937.81;;;9.67
75273;BMP280;63869;52.344;16.928;2023-02-17T15:48:54;99897.44;;;9.49
75273;BMP280;63869;52.344;16.928;2023-02-17T15:51:21;99913.91;;;9.63
75273;BMP280;63869;52.344;16.928;2023-02-17T15:53:49;99940.41;;;9.71
75273;BMP280;63869;52.344;16.928;2023-02-17T15:56:18;99920.34;;;9.66
75273;BMP280;63869;52.344;16.928;2023-02-17T15:58:44;99944.53;;;9.75
75273;BMP280;63869;52.344;16.928;2023-02-17T16:01:30;99932.69;;;9.76
75273;BMP280;63869;52.344;16.928;2023-02-17T16:03:57;99926.66;;;9.72
75273;BMP280;63869;52.344;16.928;2023-02-17T16:06:23;99938.75;;;9.77
75273;BMP280;63869;52.344;16.928;2023-02-17T16:08:49;99924.59;;;9.80
75273;BMP280;63869;52.344;16.928;2023-02-17T16:11:15;99924.94;;;9.82
75273;BMP280;63869;52.344;16.928;2023-02-17T16:13:43;99927.50;;;9.85
75273;BMP280;63869;52.344;16.928;2023-02-17T16:16:21;99923.34;;;9.84
75273;BMP280;63869;52.344;16.928;2023-02-17T16:18:47;99909.16;;;9.87
75273;BMP280;63869;52.344;16.928;2023-02-17T16:21:13;99926.25;;;9.90
75273;BMP280;63869;52.344;16.928;2023-02-17T16:23:39;99926.59;;;9.92
75273;BMP280;63869;52.344;16.928;2023-02-17T16:26:12;99896.97;;;9.86
75273;BMP280;63869;52.344;16.928;2023-02-17T16:28:38;99880.66;;;9.84
75273;BMP280;63869;52.344;16.928;2023-02-17T16:31:04;99903.31;;;9.92
75273;BMP280;63869;52.344;16.928;2023-02-17T16:33:31;99885.97;;;10.00
75273;BMP280;63869;52.344;16.928;2023-02-17T16:35:56;99886.63;;;10.05
75273;BMP280;63869;52.344;16.928;2023-02-17T16:38:23;99895.47;;;10.18
75273;BMP280;63869;52.344;16.928;2023-02-17T16:40:54;99885.00;;;10.23
75273;BMP280;63869;52.344;16.928;2023-02-17T16:43:22;99889.97;;;10.25
75273;BMP280;63869;52.344;16.928;2023-02-17T16:45:56;99882.59;;;10.29
75273;BMP280;63869;52.344;16.928;2023-02-17T16:48:23;99879.94;;;10.29
75273;BMP280;63869;52.344;16.928;2023-02-17T16:50:49;99887.94;;;10.29
75273;BMP280;63869;52.344;16.928;2023-02-17T16:53:16;99892.97;;;10.27
75273;BMP280;63869;52.344;16.928;2023-02-17T16:55:43;99899.06;;;10.27
75273;BMP280;63869;52.344;16.928;2023-02-17T16:58:17;99897.47;;;10.30
75273;BMP280;63869;52.344;16.928;2023-02-17T17:00:44;99898.78;;;10.38
75273;BMP280;63869;52.344;16.928;2023-02-17T17:03:10;99889.75;;;10.48
75273;BMP280;63869;52.344;16.928;2023-02-17T17:05:36;99883.06;;;10.56
75273;BMP280;63869;52.344;16.928;2023-02-17T17:08:03;99856.09;;;10.51
75273;BMP280;63869;52.344;16.928;2023-02-17T17:10:30;99897.47;;;10.88
75273;BMP280;63869;52.344;16.928;2023-02-17T17:12:56;99902.94;;;10.97
75273;BMP280;63869;52.344;16.928;2023-02-17T17:15:22;99873.53;;;10.97
75273;BMP280;63869;52.344;16.928;2023-02-17T17:20:18;99899.78;;;11.27
75273;BMP280;63869;52.344;16.928;2023-02-17T17:22:44;99892.41;;;11.31
75273;BMP280;63869;52.344;16.928;2023-02-17T17:25:11;99851.50;;;11.18
75273;BMP280;63869;52.344;16.928;2023-02-17T17:27:37;99876.97;;;11.48
75273;BMP280;63869;52.344;16.928;2023-02-17T17:30:08;99893.91;;;11.58
75273;BMP280;63869;52.344;16.928;2023-02-17T17:32:33;99871.94;;;11.63
75273;BMP280;63869;52.344;16.928;2023-02-17T17:34:59;99906.75;;;11.75
75273;BMP280;63869;52.344;16.928;2023-02-17T17:37:24;99907.31;;;11.83
75273;BMP280;63869;52.344;16.928;2023-02-17T17:39:49;99902.69;;;11.84
75273;BMP280;63869;52.344;16.928;2023-02-17T17:42:14;99876.66;;;11.84
75273;BMP280;63869;52.344;16.928;2023-02-17T17:44:41;99904.03;;;12.01
75273;BMP280;63869;52.344;16.928;2023-02-17T17:47:13;99891.47;;;12.10
75273;BMP280;63869;52.344;16.928;2023-02-17T17:49:40;99901.84;;;12.08
75273;BMP280;63869;52.344;16.928;2023-02-17T17:52:05;99868.22;;;12.07
75273;BMP280;63869;52.344;16.928;2023-02-17T17:54:30;99876.66;;;12.19
75273;BMP280;63869;52.344;16.928;2023-02-17T17:56:56;99866.59;;;12.10
75273;BMP280;63869;52.344;16.928;2023-02-17T17:59:21;99861.44;;;12.16
75273;BMP280;63869;52.344;16.928;2023-02-17T18:01:46;99852.66;;;12.15
75273;BMP280;63869;52.344;16.928;2023-02-17T18:04:12;99866.81;;;12.16
75273;BMP280;63869;52.344;16.928;2023-02-17T18:06:43;99888.16;;;12.28
75273;BMP280;63869;52.344;16.928;2023-02-17T18:09:11;99879.53;;;12.24
75273;BMP280;63869;52.344;16.928;2023-02-17T18:11:39;99871.69;;;12.30
75273;BMP280;63869;52.344;16.928;2023-02-17T18:14:08;99878.56;;;12.31
75273;BMP280;63869;52.344;16.928;2023-02-17T18:16:34;99862.63;;;12.15
75273;BMP280;63869;52.344;16.928;2023-02-17T18:19:02;99864.09;;;11.81
75273;BMP280;63869;52.344;16.928;2023-02-17T18:21:28;99897.66;;;11.60
75273;BMP280;63869;52.344;16.928;2023-02-17T18:23:53;99854.63;;;11.42
75273;BMP280;63869;52.344;16.928;2023-02-17T18:26:18;99872.19;;;11.43
75273;BMP280;63869;52.344;16.928;2023-02-17T18:28:44;99857.06;;;11.49
75273;BMP280;63869;52.344;16.928;2023-02-17T18:31:12;99867.91;;;11.46
75273;BMP280;63869;52.344;16.928;2023-02-17T18:33:37;99862.22;;;11.44
75273;BMP280;63869;52.344;16.928;2023-02-17T18:36:11;99886.50;;;11.49
75273;BMP280;63869;52.344;16.928;2023-02-17T18:38:38;99849.41;;;11.38
75273;BMP280;63869;52.344;16.928;2023-02-17T18:41:04;99856.88;;;11.44
75273;BMP280;63869;52.344;16.928;2023-02-17T18:43:30;99849.78;;;11.50
75273;BMP280;63869;52.344;16.928;2023-02-17T18:45:55;99857.06;;;11.49